createdAt,value
2023-03-17T00:02:18.963Z,15.86
2023-03-17T00:04:48.392Z,15.85
2023-03-17T00:07:17.719Z,15.86
2023-03-17T00:09:46.711Z,15.85
2023-03-17T00:12:15.270Z,15.84
2023-03-17T00:14:44.472Z,15.84
2023-03-17T00:17:13.236Z,15.83
2023-03-17T00:19:42.441Z,15.81
2023-03-17T00:22:11.758Z,15.81
2023-03-17T00:24:40.965Z,15.80
2023-03-17T00:27:10.117Z,15.81
2023-03-17T00:29:38.697Z,15.78
2023-03-17T00:32:07.351Z,15.80
2023-03-17T00:34:35.789Z,15.78
2023-03-17T00:37:04.149Z,15.78
2023-03-17T00:39:33.438Z,15.77
2023-03-17T00:42:02.530Z,15.77
2023-03-17T00:44:32.139Z,15.78
2023-03-17T00:47:01.546Z,15.76
2023-03-17T00:49:30.521Z,15.76
2023-03-17T00:51:59.523Z,15.76
2023-03-17T00:54:28.432Z,15.76
2023-03-17T00:57:00.743Z,15.76
2023-03-17T00:59:30.069Z,15.75
2023-03-17T01:01:59.334Z,15.76
2023-03-17T01:04:27.692Z,15.74
2023-03-17T01:06:57.014Z,15.74
2023-03-17T01:09:25.990Z,15.74
2023-03-17T01:11:54.891Z,15.74
2023-03-17T01:14:23.655Z,15.74
2023-03-17T01:16:52.129Z,15.74
2023-03-17T01:19:20.002Z,15.72
2023-03-17T01:21:47.981Z,15.74
2023-03-17T01:24:15.978Z,15.73
2023-03-17T01:26:44.171Z,15.74
2023-03-17T01:29:13.466Z,15.73
2023-03-17T01:31:42.576Z,15.72
2023-03-17T01:34:11.541Z,15.73
2023-03-17T01:36:39.861Z,15.73
2023-03-17T01:39:07.230Z,15.72
2023-03-17T01:41:36.324Z,15.71
2023-03-17T01:44:05.555Z,15.70
2023-03-17T01:46:34.631Z,15.70
2023-03-17T01:49:03.558Z,15.69
2023-03-17T01:51:32.234Z,15.70
2023-03-17T01:54:01.064Z,15.69
2023-03-17T01:56:29.880Z,15.70
2023-03-17T01:58:58.665Z,15.70
2023-03-17T02:01:27.991Z,15.69
2023-03-17T02:03:56.517Z,15.71
2023-03-17T02:06:24.724Z,15.69
2023-03-17T02:08:53.553Z,15.69
2023-03-17T02:11:22.347Z,15.69
2023-03-17T02:13:51.111Z,15.68
2023-03-17T02:16:22.492Z,15.68
2023-03-17T02:18:51.273Z,15.67
2023-03-17T02:21:21.033Z,15.67
2023-03-17T02:23:49.765Z,15.67
2023-03-17T02:26:18.540Z,15.67
2023-03-17T02:28:47.315Z,15.67
2023-03-17T02:31:16.713Z,15.67
2023-03-17T02:33:49.134Z,15.66
2023-03-17T02:36:17.579Z,15.67
2023-03-17T02:38:48.033Z,15.66
2023-03-17T02:41:16.863Z,15.61
2023-03-17T02:43:47.096Z,15.65
2023-03-17T02:46:16.338Z,15.66
2023-03-17T02:48:45.585Z,15.66
2023-03-17T02:51:14.523Z,15.65
2023-03-17T02:53:42.805Z,15.64
2023-03-17T02:56:10.968Z,15.64
2023-03-17T02:58:40.276Z,15.65
2023-03-17T03:01:09.668Z,15.64
2023-03-17T03:03:38.565Z,15.63
2023-03-17T03:06:07.316Z,15.62
2023-03-17T03:08:36.559Z,15.62
2023-03-17T03:11:05.857Z,15.59
2023-03-17T03:13:35.044Z,15.61
2023-03-17T03:16:03.928Z,15.62
2023-03-17T03:18:32.260Z,15.62
2023-03-17T03:21:00.517Z,15.62
2023-03-17T03:23:29.288Z,15.62
2023-03-17T03:25:58.054Z,15.59
2023-03-17T03:28:27.307Z,15.60
2023-03-17T03:30:56.577Z,15.61
2023-03-17T03:33:25.905Z,15.60
2023-03-17T03:35:55.173Z,15.60
2023-03-17T03:38:24.467Z,15.60
2023-03-17T03:40:53.726Z,15.60
2023-03-17T03:43:24.131Z,15.59
2023-03-17T03:45:53.612Z,15.59
2023-03-17T03:48:22.845Z,15.60
2023-03-17T03:50:51.180Z,15.59
2023-03-17T03:53:20.382Z,15.59
2023-03-17T03:55:49.589Z,15.59
2023-03-17T03:58:18.871Z,15.58
2023-03-17T04:00:47.726Z,15.59
2023-03-17T04:03:17.151Z,15.58
2023-03-17T04:05:46.444Z,15.58
2023-03-17T04:08:15.445Z,15.54
2023-03-17T04:10:43.976Z,15.57
2023-03-17T04:13:13.170Z,15.57
2023-03-17T04:15:42.619Z,15.56
2023-03-17T04:18:11.669Z,15.57
2023-03-17T04:20:40.397Z,15.55
2023-03-17T04:23:09.269Z,15.56
2023-03-17T04:25:38.606Z,15.55
2023-03-17T04:28:07.647Z,15.55
2023-03-17T04:30:36.267Z,15.53
2023-03-17T04:33:05.071Z,15.54
2023-03-17T04:35:34.407Z,15.54
2023-03-17T04:38:03.747Z,15.53
2023-03-17T04:40:33.187Z,15.53
2023-03-17T04:43:03.601Z,15.53
2023-03-17T04:45:32.950Z,15.51
2023-03-17T04:48:02.262Z,15.52
2023-03-17T04:50:31.272Z,15.52
2023-03-17T04:53:00.584Z,15.53
2023-03-17T04:55:29.845Z,15.52
2023-03-17T04:57:59.120Z,15.51
2023-03-17T05:00:28.463Z,15.53
2023-03-17T05:02:57.485Z,15.52
2023-03-17T05:05:26.039Z,15.52
2023-03-17T05:07:55.272Z,15.52
2023-03-17T05:10:28.802Z,15.52
2023-03-17T05:12:58.398Z,15.52
2023-03-17T05:15:27.700Z,15.51
2023-03-17T05:18:01.840Z,15.52
2023-03-17T05:20:32.897Z,15.51
2023-03-17T05:23:02.295Z,15.52
2023-03-17T05:25:31.552Z,15.52
2023-03-17T05:28:00.359Z,15.52
2023-03-17T05:30:29.674Z,15.50
2023-03-17T05:32:58.732Z,15.51
2023-03-17T05:35:27.572Z,15.51
2023-03-17T05:37:56.600Z,15.52
2023-03-17T05:40:24.775Z,15.52
2023-03-17T05:42:54.168Z,15.52
2023-03-17T05:45:22.987Z,15.51
2023-03-17T05:47:52.281Z,15.52
2023-03-17T05:50:21.714Z,15.52
2023-03-17T05:52:50.954Z,15.49
2023-03-17T05:55:20.346Z,15.52
2023-03-17T05:57:49.193Z,15.52
2023-03-17T06:00:17.927Z,15.53
2023-03-17T06:02:47.387Z,15.54
2023-03-17T06:05:16.777Z,15.56
2023-03-17T06:07:53.353Z,15.56
2023-03-17T06:10:26.230Z,15.56
2023-03-17T06:12:54.929Z,15.56
2023-03-17T06:15:24.084Z,15.57
2023-03-17T06:17:52.856Z,15.58
2023-03-17T06:20:22.159Z,15.58
2023-03-17T06:23:03.882Z,15.59
2023-03-17T06:25:34.378Z,15.60
2023-03-17T06:28:03.266Z,15.61
2023-03-17T06:30:32.497Z,15.62
2023-03-17T06:33:01.392Z,15.62
2023-03-17T06:35:31.052Z,15.63
2023-03-17T06:38:00.692Z,15.64
2023-03-17T06:40:29.892Z,15.66
2023-03-17T06:43:00.110Z,15.67
2023-03-17T06:45:29.258Z,15.70
2023-03-17T06:47:57.585Z,15.73
2023-03-17T06:50:26.855Z,15.76
2023-03-17T06:53:00.791Z,15.81
2023-03-17T06:55:30.727Z,15.87
2023-03-17T06:57:59.794Z,15.90
2023-03-17T07:00:29.105Z,15.96
2023-03-17T07:03:01.954Z,16.00
2023-03-17T07:05:31.344Z,16.04
2023-03-17T07:08:00.743Z,16.08
2023-03-17T07:10:30.874Z,16.13
2023-03-17T07:13:01.103Z,16.18
2023-03-17T07:15:30.560Z,16.22
2023-03-17T07:17:59.944Z,16.27
2023-03-17T07:20:29.238Z,16.32
2023-03-17T07:22:58.001Z,16.35
2023-03-17T07:25:27.354Z,16.39
2023-03-17T07:27:56.534Z,16.43
2023-03-17T07:30:25.323Z,16.47
2023-03-17T07:32:54.252Z,16.51
2023-03-17T07:35:23.637Z,16.57
2023-03-17T07:37:52.867Z,16.62
2023-03-17T07:40:23.070Z,16.68
2023-03-17T07:42:53.287Z,16.75
2023-03-17T07:45:22.021Z,16.82
2023-03-17T07:47:52.184Z,16.88
2023-03-17T07:50:22.426Z,16.95
2023-03-17T07:52:51.241Z,17.03
2023-03-17T07:55:20.294Z,17.12
2023-03-17T07:57:48.879Z,17.19
2023-03-17T08:00:17.874Z,17.29
2023-03-17T08:02:53.737Z,17.41
2023-03-17T08:05:28.567Z,17.62
2023-03-17T08:07:57.094Z,17.78
2023-03-17T08:10:25.834Z,17.96
2023-03-17T08:12:58.952Z,18.12
2023-03-17T08:15:28.200Z,18.25
2023-03-17T08:17:57.386Z,18.42
2023-03-17T08:20:26.219Z,18.58
2023-03-17T08:22:55.415Z,18.71
2023-03-17T08:25:24.697Z,18.84
2023-03-17T08:27:53.972Z,18.95
2023-03-17T08:30:23.301Z,19.12
2023-03-17T08:32:52.206Z,19.34
2023-03-17T08:35:21.511Z,19.58
2023-03-17T08:37:50.794Z,19.83
2023-03-17T08:40:19.631Z,20.06
2023-03-17T08:42:48.837Z,20.27
2023-03-17T08:45:18.159Z,20.50
2023-03-17T08:47:47.437Z,20.70
2023-03-17T08:50:16.696Z,20.92
2023-03-17T08:52:46.936Z,21.10
2023-03-17T08:55:16.930Z,21.26
2023-03-17T08:57:45.626Z,21.38
2023-03-17T09:00:14.949Z,21.44
2023-03-17T09:02:44.030Z,21.49
2023-03-17T09:05:12.729Z,21.53
2023-03-17T09:07:41.931Z,21.56
2023-03-17T09:10:11.059Z,21.57
2023-03-17T09:12:39.405Z,21.61
2023-03-17T09:15:08.347Z,21.71
2023-03-17T09:17:36.528Z,21.81
2023-03-17T09:20:05.782Z,21.90
2023-03-17T09:22:35.030Z,21.98
2023-03-17T09:25:03.893Z,22.11
2023-03-17T09:27:33.190Z,22.22
2023-03-17T09:30:08.595Z,22.31
2023-03-17T09:32:37.822Z,22.34
2023-03-17T09:35:07.160Z,22.36
2023-03-17T09:37:37.119Z,22.34
2023-03-17T09:40:05.837Z,22.29
2023-03-17T09:42:35.060Z,22.19
2023-03-17T09:45:04.301Z,22.07
2023-03-17T09:47:33.547Z,21.92
2023-03-17T09:50:02.726Z,21.75
2023-03-17T09:52:31.462Z,21.61
2023-03-17T09:55:00.748Z,21.48
2023-03-17T09:57:30.134Z,21.36
2023-03-17T09:59:58.884Z,21.28
2023-03-17T10:02:28.793Z,21.24
2023-03-17T10:04:58.258Z,21.22
2023-03-17T10:07:27.609Z,21.20
2023-03-17T10:09:56.838Z,21.24
2023-03-17T10:12:25.618Z,21.32
2023-03-17T10:14:54.372Z,21.42
2023-03-17T10:17:23.665Z,21.63
2023-03-17T10:19:52.921Z,21.82
2023-03-17T10:22:22.298Z,22.04
2023-03-17T10:24:51.607Z,22.23
2023-03-17T10:27:20.935Z,22.39
2023-03-17T10:29:49.689Z,22.52
2023-03-17T10:32:19.102Z,22.61
2023-03-17T10:34:48.493Z,22.65
2023-03-17T10:37:16.885Z,22.66
2023-03-17T10:39:45.949Z,22.64
2023-03-17T10:42:14.541Z,22.58
2023-03-17T10:44:43.793Z,22.49
2023-03-17T10:47:13.096Z,22.38
2023-03-17T10:49:42.379Z,22.31
2023-03-17T10:52:11.666Z,22.29
2023-03-17T10:54:40.954Z,22.29
2023-03-17T10:57:10.261Z,22.33
2023-03-17T10:59:43.428Z,22.41
2023-03-17T11:02:14.955Z,22.47
2023-03-17T11:04:44.070Z,22.49
2023-03-17T11:07:12.334Z,22.47
2023-03-17T11:09:41.304Z,22.41
2023-03-17T11:12:09.971Z,22.31
2023-03-17T11:14:39.271Z,22.14
2023-03-17T11:17:07.590Z,21.99
2023-03-17T11:19:36.575Z,21.81
2023-03-17T11:22:04.961Z,21.60
2023-03-17T11:24:33.730Z,21.46
2023-03-17T11:27:02.744Z,21.34
2023-03-17T11:29:31.490Z,21.23
2023-03-17T11:32:00.572Z,21.14
2023-03-17T11:34:29.210Z,21.04
2023-03-17T11:36:59.156Z,20.96
2023-03-17T11:39:29.336Z,20.93
2023-03-17T11:41:58.655Z,20.91
2023-03-17T11:44:27.469Z,20.99
2023-03-17T11:46:56.690Z,21.07
2023-03-17T11:49:25.945Z,21.16
2023-03-17T11:51:55.327Z,21.27
2023-03-17T11:54:24.539Z,21.38
2023-03-17T11:56:53.056Z,21.47
2023-03-17T11:59:22.245Z,21.53
2023-03-17T12:01:50.525Z,21.54
2023-03-17T12:04:19.310Z,21.54
2023-03-17T12:06:48.118Z,21.57
2023-03-17T12:09:16.866Z,21.61
2023-03-17T12:11:46.159Z,21.65
2023-03-17T12:14:15.486Z,21.72
2023-03-17T12:16:44.834Z,21.76
2023-03-17T12:19:13.997Z,21.80
2023-03-17T12:21:43.239Z,21.90
2023-03-17T12:24:12.590Z,21.96
2023-03-17T12:26:41.654Z,21.99
2023-03-17T12:29:10.909Z,22.03
2023-03-17T12:31:40.170Z,22.07
2023-03-17T12:34:09.411Z,22.12
2023-03-17T12:36:38.621Z,22.15
2023-03-17T12:39:08.089Z,22.18
2023-03-17T12:41:37.381Z,22.20
2023-03-17T12:44:06.567Z,22.25
2023-03-17T12:46:35.115Z,22.29
2023-03-17T12:49:03.834Z,22.31
2023-03-17T12:51:33.142Z,22.31
2023-03-17T12:54:02.409Z,22.25
2023-03-17T12:56:31.685Z,22.18
2023-03-17T12:59:01.066Z,22.21
2023-03-17T13:01:31.736Z,22.29
2023-03-17T13:04:02.426Z,22.24
2023-03-17T13:06:31.244Z,22.09
2023-03-17T13:09:00.456Z,21.94
2023-03-17T13:11:29.468Z,21.84
2023-03-17T13:13:58.314Z,21.78
2023-03-17T13:16:27.559Z,21.75
2023-03-17T13:18:56.821Z,21.70
2023-03-17T13:21:25.683Z,21.59
2023-03-17T13:23:55.021Z,21.46
2023-03-17T13:26:28.438Z,21.37
2023-03-17T13:28:57.808Z,21.48
2023-03-17T13:31:26.674Z,21.52
2023-03-17T13:33:55.495Z,21.36
2023-03-17T13:36:25.641Z,21.21
2023-03-17T13:39:15.001Z,21.10
2023-03-17T13:41:44.053Z,21.02
2023-03-17T13:44:13.290Z,20.99
2023-03-17T13:46:42.673Z,20.99
2023-03-17T13:49:12.165Z,20.92
2023-03-17T13:51:46.575Z,20.81
2023-03-17T13:54:22.386Z,20.71
2023-03-17T13:56:51.662Z,20.67
2023-03-17T13:59:20.491Z,20.78
2023-03-17T14:01:49.749Z,20.90
2023-03-17T14:04:19.075Z,21.10
2023-03-17T14:06:48.360Z,21.12
2023-03-17T14:09:17.653Z,21.41
2023-03-17T14:11:46.955Z,21.30
2023-03-17T14:14:31.218Z,21.03
2023-03-17T14:17:01.410Z,20.81
2023-03-17T14:19:30.036Z,20.72
2023-03-17T14:21:59.335Z,20.73
2023-03-17T14:24:28.550Z,20.81
2023-03-17T14:26:57.909Z,20.86
2023-03-17T14:29:27.312Z,21.00
2023-03-17T14:31:56.171Z,21.09
2023-03-17T14:34:25.106Z,21.09
2023-03-17T14:36:54.132Z,21.00
2023-03-17T14:39:23.699Z,20.88
2023-03-17T14:41:52.683Z,20.77
2023-03-17T14:44:21.528Z,20.66
2023-03-17T14:46:50.878Z,20.60
2023-03-17T14:49:19.691Z,20.58
2023-03-17T14:51:49.032Z,20.59
2023-03-17T14:54:17.886Z,20.61
2023-03-17T14:56:46.433Z,20.59
2023-03-17T14:59:15.740Z,20.49
2023-03-17T15:01:45.679Z,20.43
2023-03-17T15:04:14.191Z,20.35
2023-03-17T15:06:42.877Z,20.26
2023-03-17T15:09:12.146Z,20.18
2023-03-17T15:11:41.453Z,20.11
2023-03-17T15:14:10.628Z,20.06
2023-03-17T15:16:39.935Z,20.01
2023-03-17T15:19:09.289Z,19.97
2023-03-17T15:21:38.539Z,19.95
2023-03-17T15:24:07.786Z,19.94
2023-03-17T15:26:36.601Z,19.92
2023-03-17T15:29:06.025Z,19.90
2023-03-17T15:31:35.495Z,19.88
2023-03-17T15:34:05.850Z,19.85
2023-03-17T15:36:35.931Z,19.80
2023-03-17T15:39:04.518Z,19.74
2023-03-17T15:41:33.252Z,19.68
2023-03-17T15:44:04.014Z,19.63
2023-03-17T15:46:34.171Z,19.57
2023-03-17T15:49:03.534Z,19.52
2023-03-17T15:51:32.852Z,19.48
2023-03-17T15:54:02.193Z,19.45
2023-03-17T15:56:30.359Z,19.42
2023-03-17T15:58:59.352Z,19.37
2023-03-17T16:01:28.125Z,19.35
2023-03-17T16:03:57.474Z,19.34
2023-03-17T16:06:26.804Z,19.35
2023-03-17T16:08:55.701Z,19.34
2023-03-17T16:11:28.481Z,19.34
2023-03-17T16:13:56.434Z,19.34
2023-03-17T16:16:25.321Z,19.31
2023-03-17T16:18:54.579Z,19.29
2023-03-17T16:21:23.841Z,19.29
2023-03-17T16:23:53.119Z,19.26
2023-03-17T16:26:22.443Z,19.24
2023-03-17T16:28:50.538Z,19.19
2023-03-17T16:31:19.285Z,19.16
2023-03-17T16:33:48.640Z,19.11
2023-03-17T16:36:21.611Z,19.05
2023-03-17T16:38:50.865Z,19.02
2023-03-17T16:41:20.005Z,18.98
2023-03-17T16:43:48.770Z,18.95
2023-03-17T16:46:18.218Z,18.90
2023-03-17T16:48:47.576Z,18.87
2023-03-17T16:51:16.805Z,18.85
2023-03-17T16:53:46.134Z,18.81
2023-03-17T16:56:14.952Z,18.79
2023-03-17T16:58:44.131Z,18.76
2023-03-17T17:01:13.419Z,18.72
2023-03-17T17:03:42.665Z,18.69
2023-03-17T17:06:11.949Z,18.67
2023-03-17T17:08:41.153Z,18.64
2023-03-17T17:11:10.417Z,18.61
2023-03-17T17:13:39.689Z,18.59
2023-03-17T17:16:09.016Z,18.56
2023-03-17T17:18:38.136Z,18.54
2023-03-17T17:21:06.851Z,18.51
2023-03-17T17:23:36.064Z,18.50
2023-03-17T17:26:09.245Z,18.47
2023-03-17T17:28:38.542Z,18.45
2023-03-17T17:31:07.892Z,18.43
2023-03-17T17:33:37.263Z,18.42
2023-03-17T17:36:06.602Z,18.40
2023-03-17T17:38:35.960Z,18.36
2023-03-17T17:41:05.190Z,18.36
2023-03-17T17:43:34.496Z,18.34
2023-03-17T17:46:03.283Z,18.29
2023-03-17T17:48:32.558Z,18.31
2023-03-17T17:51:01.803Z,18.30
2023-03-17T17:53:31.066Z,18.28
2023-03-17T17:56:00.072Z,18.26
2023-03-17T17:58:32.779Z,18.25
2023-03-17T18:01:02.012Z,18.22
2023-03-17T18:03:32.232Z,18.23
2023-03-17T18:06:01.091Z,18.21
2023-03-17T18:08:29.976Z,18.21
2023-03-17T18:10:58.144Z,18.20
2023-03-17T18:13:27.311Z,18.19
2023-03-17T18:15:56.570Z,18.17
2023-03-17T18:18:26.010Z,18.16
2023-03-17T18:20:54.929Z,18.16
2023-03-17T18:23:23.716Z,18.14
2023-03-17T18:25:53.016Z,18.13
2023-03-17T18:28:21.798Z,18.12
2023-03-17T18:30:51.086Z,18.12
2023-03-17T18:33:20.263Z,18.11
2023-03-17T18:35:49.698Z,18.09
2023-03-17T18:38:19.160Z,18.08
2023-03-17T18:40:48.455Z,18.07
2023-03-17T18:43:17.168Z,18.07
2023-03-17T18:45:46.218Z,18.06
2023-03-17T18:48:14.825Z,18.06
2023-03-17T18:50:43.724Z,18.04
2023-03-17T18:53:13.045Z,18.05
2023-03-17T18:55:42.145Z,18.04
2023-03-17T18:58:14.521Z,18.04
2023-03-17T19:00:43.831Z,18.03
2023-03-17T19:03:12.891Z,18.01
2023-03-17T19:05:41.481Z,18.01
2023-03-17T19:08:10.655Z,18.00
2023-03-17T19:10:39.989Z,17.99
2023-03-17T19:13:10.341Z,17.98
2023-03-17T19:15:39.369Z,17.96
2023-03-17T19:18:07.948Z,17.96
2023-03-17T19:20:37.372Z,17.95
2023-03-17T19:23:06.812Z,17.93
2023-03-17T19:25:36.213Z,17.92
2023-03-17T19:28:05.419Z,17.93
2023-03-17T19:30:35.214Z,17.93
2023-03-17T19:33:04.957Z,17.91
2023-03-17T19:35:34.343Z,17.92
2023-03-17T19:38:03.813Z,17.91
2023-03-17T19:40:33.607Z,17.90
2023-03-17T19:43:03.052Z,17.89
2023-03-17T19:45:33.181Z,17.88
2023-03-17T19:48:02.985Z,17.88
2023-03-17T19:50:32.388Z,17.88
2023-03-17T19:53:01.959Z,17.87
2023-03-17T19:55:31.608Z,17.87
2023-03-17T19:58:01.037Z,17.86
2023-03-17T20:00:33.958Z,17.86
2023-03-17T20:03:03.287Z,17.86
2023-03-17T20:05:32.482Z,17.85
2023-03-17T20:08:01.080Z,17.84
2023-03-17T20:10:29.896Z,17.84
2023-03-17T20:12:59.414Z,17.84
2023-03-17T20:15:28.401Z,17.83
2023-03-17T20:17:57.031Z,17.83
2023-03-17T20:20:26.374Z,17.83
2023-03-17T20:22:55.698Z,17.83
2023-03-17T20:25:24.911Z,17.83
2023-03-17T20:27:54.084Z,17.83
2023-03-17T20:30:22.857Z,17.82
2023-03-17T20:32:52.132Z,17.82
2023-03-17T20:35:21.134Z,17.81
2023-03-17T20:37:49.850Z,17.82
2023-03-17T20:40:19.244Z,17.82
2023-03-17T20:42:48.057Z,17.81
2023-03-17T20:45:16.388Z,17.82
2023-03-17T20:47:45.715Z,17.82
2023-03-17T20:50:14.915Z,17.81
2023-03-17T20:52:44.185Z,17.81
2023-03-17T20:55:13.426Z,17.80
2023-03-17T20:57:42.734Z,17.81
2023-03-17T21:00:12.041Z,17.80
2023-03-17T21:02:40.807Z,17.76
2023-03-17T21:05:09.606Z,17.80
2023-03-17T21:07:38.863Z,17.80
2023-03-17T21:10:07.852Z,17.79
2023-03-17T21:12:36.554Z,17.79
2023-03-17T21:15:05.948Z,17.79
2023-03-17T21:17:35.254Z,17.78
2023-03-17T21:20:04.585Z,17.79
2023-03-17T21:22:33.398Z,17.78
2023-03-17T21:25:02.224Z,17.78
2023-03-17T21:27:31.262Z,17.77
2023-03-17T21:29:59.557Z,17.77
2023-03-17T21:32:28.234Z,17.78
2023-03-17T21:34:57.277Z,17.76
2023-03-17T21:37:25.908Z,17.77
2023-03-17T21:39:54.722Z,17.78
2023-03-17T21:42:23.946Z,17.76
2023-03-17T21:44:54.043Z,17.76
2023-03-17T21:47:24.440Z,17.75
2023-03-17T21:49:53.415Z,17.75
2023-03-17T21:52:22.870Z,17.76
2023-03-17T21:54:53.061Z,17.76
2023-03-17T21:57:22.515Z,17.75
2023-03-17T21:59:51.905Z,17.74
2023-03-17T22:02:21.126Z,17.75
2023-03-17T22:04:49.970Z,17.74
2023-03-17T22:07:18.746Z,17.74
2023-03-17T22:09:48.044Z,17.75
2023-03-17T22:12:17.397Z,17.73
2023-03-17T22:14:46.807Z,17.74
2023-03-17T22:17:19.800Z,17.73
2023-03-17T22:19:50.156Z,17.74
2023-03-17T22:22:20.513Z,17.72
2023-03-17T22:24:49.509Z,17.72
2023-03-17T22:27:18.189Z,17.72
2023-03-17T22:29:47.401Z,17.72
2023-03-17T22:32:16.564Z,17.70
2023-03-17T22:34:45.023Z,17.71
2023-03-17T22:37:13.616Z,17.71
2023-03-17T22:39:42.930Z,17.71
2023-03-17T22:42:12.270Z,17.70
2023-03-17T22:44:41.557Z,17.70
2023-03-17T22:47:10.830Z,17.70
2023-03-17T22:49:40.174Z,17.69
2023-03-17T22:52:09.210Z,17.68
2023-03-17T22:54:37.283Z,17.68
2023-03-17T22:57:06.500Z,17.68
2023-03-17T22:59:35.728Z,17.67
2023-03-17T23:02:04.674Z,17.63
2023-03-17T23:04:32.406Z,17.67
2023-03-17T23:07:02.947Z,17.65
2023-03-17T23:09:31.907Z,17.66
2023-03-17T23:11:59.596Z,17.65
2023-03-17T23:14:28.332Z,17.65
2023-03-17T23:16:57.681Z,17.65
2023-03-17T23:19:27.017Z,17.65
2023-03-17T23:21:56.087Z,17.63
2023-03-17T23:24:28.494Z,17.64
2023-03-17T23:26:57.252Z,17.64
2023-03-17T23:29:26.583Z,17.64
2023-03-17T23:31:55.556Z,17.63
2023-03-17T23:34:24.140Z,17.64
2023-03-17T23:36:53.385Z,17.63
2023-03-17T23:39:22.713Z,17.63
2023-03-17T23:41:51.624Z,17.63
2023-03-17T23:44:20.396Z,17.63
2023-03-17T23:46:49.652Z,17.62
2023-03-17T23:49:18.435Z,17.63
2023-03-17T23:51:47.209Z,17.62
2023-03-17T23:54:16.390Z,17.61
2023-03-17T23:56:45.298Z,17.62
2023-03-17T23:59:13.797Z,17.61
